sensor_id;sensor_type;location;lat;lon;timestamp;P1;durP1;ratioP1;P2;durP2;ratioP2
4432;SDS011;2229;48.708;9.706;2024-02-21T00:00:53;4.50;;;2.70;;
4432;SDS011;2229;48.708;9.706;2024-02-21T00:03:20;8.57;;;3.03;;
4432;SDS011;2229;48.708;9.706;2024-02-21T00:05:47;3.70;;;2.10;;
4432;SDS011;2229;48.708;9.706;2024-02-21T00:08:14;5.03;;;2.20;;
4432;SDS011;2229;48.708;9.706;2024-02-21T00:10:42;4.57;;;2.33;;
4432;SDS011;2229;48.708;9.706;2024-02-21T00:13:09;5.90;;;2.30;;
4432;SDS011;2229;48.708;9.706;2024-02-21T00:15:37;6.73;;;3.23;;
4432;SDS011;2229;48.708;9.706;2024-02-21T00:18:04;6.33;;;3.00;;
4432;SDS011;2229;48.708;9.706;2024-02-21T00:20:32;4.60;;;2.30;;
4432;SDS011;2229;48.708;9.706;2024-02-21T00:22:59;2.27;;;1.60;;
4432;SDS011;2229;48.708;9.706;2024-02-21T00:25:26;4.87;;;3.57;;
4432;SDS011;2229;48.708;9.706;2024-02-21T00:27:53;3.80;;;2.30;;
4432;SDS011;2229;48.708;9.706;2024-02-21T00:30:20;3.83;;;2.23;;
4432;SDS011;2229;48.708;9.706;2024-02-21T00:32:50;4.90;;;2.80;;
4432;SDS011;2229;48.708;9.706;2024-02-21T00:35:17;4.40;;;2.37;;
4432;SDS011;2229;48.708;9.706;2024-02-21T00:37:44;4.43;;;2.80;;
4432;SDS011;2229;48.708;9.706;2024-02-21T00:40:11;5.30;;;2.60;;
4432;SDS011;2229;48.708;9.706;2024-02-21T00:42:41;5.03;;;2.33;;
4432;SDS011;2229;48.708;9.706;2024-02-21T00:45:08;5.50;;;2.13;;
4432;SDS011;2229;48.708;9.706;2024-02-21T00:47:36;5.83;;;2.43;;
4432;SDS011;2229;48.708;9.706;2024-02-21T00:50:05;5.17;;;2.80;;
4432;SDS011;2229;48.708;9.706;2024-02-21T00:52:33;18.50;;;2.13;;
4432;SDS011;2229;48.708;9.706;2024-02-21T00:54:59;4.73;;;2.70;;
4432;SDS011;2229;48.708;9.706;2024-02-21T00:57:26;6.17;;;3.03;;
4432;SDS011;2229;48.708;9.706;2024-02-21T00:59:53;8.53;;;3.50;;
4432;SDS011;2229;48.708;9.706;2024-02-21T01:02:21;17.23;;;2.53;;
4432;SDS011;2229;48.708;9.706;2024-02-21T01:04:48;9.17;;;2.77;;
4432;SDS011;2229;48.708;9.706;2024-02-21T01:07:17;4.60;;;2.17;;
4432;SDS011;2229;48.708;9.706;2024-02-21T01:09:44;5.77;;;2.40;;
4432;SDS011;2229;48.708;9.706;2024-02-21T01:12:11;11.47;;;3.23;;
4432;SDS011;2229;48.708;9.706;2024-02-21T01:14:38;3.50;;;2.00;;
4432;SDS011;2229;48.708;9.706;2024-02-21T01:17:05;5.23;;;2.80;;
4432;SDS011;2229;48.708;9.706;2024-02-21T01:19:32;5.20;;;2.60;;
4432;SDS011;2229;48.708;9.706;2024-02-21T01:22:05;3.43;;;2.20;;
4432;SDS011;2229;48.708;9.706;2024-02-21T01:24:41;4.10;;;2.13;;
4432;SDS011;2229;48.708;9.706;2024-02-21T01:27:08;5.50;;;2.27;;
4432;SDS011;2229;48.708;9.706;2024-02-21T01:29:35;6.10;;;2.77;;
4432;SDS011;2229;48.708;9.706;2024-02-21T01:32:05;6.90;;;2.63;;
4432;SDS011;2229;48.708;9.706;2024-02-21T01:34:32;6.80;;;2.37;;
4432;SDS011;2229;48.708;9.706;2024-02-21T01:36:59;10.87;;;2.83;;
4432;SDS011;2229;48.708;9.706;2024-02-21T01:39:29;6.30;;;2.50;;
4432;SDS011;2229;48.708;9.706;2024-02-21T01:42:02;3.87;;;2.10;;
4432;SDS011;2229;48.708;9.706;2024-02-21T01:44:30;4.27;;;1.90;;
4432;SDS011;2229;48.708;9.706;2024-02-21T01:46:58;3.83;;;2.40;;
4432;SDS011;2229;48.708;9.706;2024-02-21T01:49:25;5.37;;;2.30;;
4432;SDS011;2229;48.708;9.706;2024-02-21T01:51:54;3.33;;;2.60;;
4432;SDS011;2229;48.708;9.706;2024-02-21T01:54:22;6.00;;;3.20;;
4432;SDS011;2229;48.708;9.706;2024-02-21T01:56:49;4.73;;;2.50;;
4432;SDS011;2229;48.708;9.706;2024-02-21T01:59:19;7.27;;;2.33;;
4432;SDS011;2229;48.708;9.706;2024-02-21T02:01:47;4.97;;;2.37;;
4432;SDS011;2229;48.708;9.706;2024-02-21T02:04:14;2.70;;;2.00;;
4432;SDS011;2229;48.708;9.706;2024-02-21T02:06:41;5.40;;;1.93;;
4432;SDS011;2229;48.708;9.706;2024-02-21T02:09:08;6.33;;;3.20;;
4432;SDS011;2229;48.708;9.706;2024-02-21T02:11:35;2.77;;;2.47;;
4432;SDS011;2229;48.708;9.706;2024-02-21T02:14:03;8.73;;;2.50;;
4432;SDS011;2229;48.708;9.706;2024-02-21T02:16:32;2.37;;;1.90;;
4432;SDS011;2229;48.708;9.706;2024-02-21T02:18:59;6.57;;;2.77;;
4432;SDS011;2229;48.708;9.706;2024-02-21T02:21:29;7.93;;;2.37;;
4432;SDS011;2229;48.708;9.706;2024-02-21T02:24:00;7.50;;;2.40;;
4432;SDS011;2229;48.708;9.706;2024-02-21T02:26:27;13.00;;;2.63;;
4432;SDS011;2229;48.708;9.706;2024-02-21T02:28:54;3.23;;;2.13;;
4432;SDS011;2229;48.708;9.706;2024-02-21T02:31:21;6.13;;;2.57;;
4432;SDS011;2229;48.708;9.706;2024-02-21T02:33:48;3.13;;;1.90;;
4432;SDS011;2229;48.708;9.706;2024-02-21T02:36:18;9.60;;;2.97;;
4432;SDS011;2229;48.708;9.706;2024-02-21T02:38:45;10.23;;;2.03;;
4432;SDS011;2229;48.708;9.706;2024-02-21T02:41:14;5.80;;;2.67;;
4432;SDS011;2229;48.708;9.706;2024-02-21T02:43:41;4.63;;;2.30;;
4432;SDS011;2229;48.708;9.706;2024-02-21T02:46:09;3.33;;;2.07;;
4432;SDS011;2229;48.708;9.706;2024-02-21T02:48:36;4.93;;;2.90;;
4432;SDS011;2229;48.708;9.706;2024-02-21T02:51:04;9.60;;;2.93;;
4432;SDS011;2229;48.708;9.706;2024-02-21T02:53:31;5.50;;;2.57;;
4432;SDS011;2229;48.708;9.706;2024-02-21T02:55:58;8.17;;;2.03;;
4432;SDS011;2229;48.708;9.706;2024-02-21T02:58:26;4.77;;;2.20;;
4432;SDS011;2229;48.708;9.706;2024-02-21T03:00:54;5.90;;;2.23;;
4432;SDS011;2229;48.708;9.706;2024-02-21T03:03:22;4.93;;;2.00;;
4432;SDS011;2229;48.708;9.706;2024-02-21T03:05:50;13.63;;;2.93;;
4432;SDS011;2229;48.708;9.706;2024-02-21T03:08:17;2.10;;;1.13;;
4432;SDS011;2229;48.708;9.706;2024-02-21T03:10:49;3.90;;;2.53;;
4432;SDS011;2229;48.708;9.706;2024-02-21T03:13:16;7.40;;;3.07;;
4432;SDS011;2229;48.708;9.706;2024-02-21T03:15:45;2.97;;;2.30;;
4432;SDS011;2229;48.708;9.706;2024-02-21T03:18:12;2.80;;;1.90;;
4432;SDS011;2229;48.708;9.706;2024-02-21T03:20:39;4.97;;;1.93;;
4432;SDS011;2229;48.708;9.706;2024-02-21T03:23:06;6.70;;;3.30;;
4432;SDS011;2229;48.708;9.706;2024-02-21T03:25:34;4.63;;;2.30;;
4432;SDS011;2229;48.708;9.706;2024-02-21T03:28:01;3.37;;;1.77;;
4432;SDS011;2229;48.708;9.706;2024-02-21T03:30:29;9.10;;;2.23;;
4432;SDS011;2229;48.708;9.706;2024-02-21T03:32:57;6.40;;;3.00;;
4432;SDS011;2229;48.708;9.706;2024-02-21T03:35:24;4.90;;;2.70;;
4432;SDS011;2229;48.708;9.706;2024-02-21T03:37:53;8.00;;;3.10;;
4432;SDS011;2229;48.708;9.706;2024-02-21T03:40:20;11.97;;;2.43;;
4432;SDS011;2229;48.708;9.706;2024-02-21T03:42:47;6.00;;;2.57;;
4432;SDS011;2229;48.708;9.706;2024-02-21T03:45:14;11.73;;;2.90;;
4432;SDS011;2229;48.708;9.706;2024-02-21T03:47:42;10.80;;;3.60;;
4432;SDS011;2229;48.708;9.706;2024-02-21T03:50:10;13.43;;;3.03;;
4432;SDS011;2229;48.708;9.706;2024-02-21T03:55:06;11.40;;;2.40;;
4432;SDS011;2229;48.708;9.706;2024-02-21T03:57:34;5.50;;;2.67;;
4432;SDS011;2229;48.708;9.706;2024-02-21T04:00:01;4.07;;;2.23;;
4432;SDS011;2229;48.708;9.706;2024-02-21T04:02:33;4.63;;;2.23;;
4432;SDS011;2229;48.708;9.706;2024-02-21T04:05:00;3.57;;;1.67;;
4432;SDS011;2229;48.708;9.706;2024-02-21T04:07:30;11.13;;;2.50;;
4432;SDS011;2229;48.708;9.706;2024-02-21T04:09:57;3.80;;;2.00;;
4432;SDS011;2229;48.708;9.706;2024-02-21T04:12:24;6.33;;;2.40;;
4432;SDS011;2229;48.708;9.706;2024-02-21T04:14:51;7.00;;;2.23;;
4432;SDS011;2229;48.708;9.706;2024-02-21T04:17:18;10.87;;;2.00;;
4432;SDS011;2229;48.708;9.706;2024-02-21T04:19:45;3.43;;;2.00;;
4432;SDS011;2229;48.708;9.706;2024-02-21T04:22:12;5.80;;;2.30;;
4432;SDS011;2229;48.708;9.706;2024-02-21T04:24:41;4.03;;;1.77;;
4432;SDS011;2229;48.708;9.706;2024-02-21T04:27:08;3.20;;;1.70;;
4432;SDS011;2229;48.708;9.706;2024-02-21T04:29:35;15.63;;;2.67;;
4432;SDS011;2229;48.708;9.706;2024-02-21T04:32:02;5.03;;;1.57;;
4432;SDS011;2229;48.708;9.706;2024-02-21T04:34:30;4.03;;;1.50;;
4432;SDS011;2229;48.708;9.706;2024-02-21T04:36:57;4.27;;;1.60;;
4432;SDS011;2229;48.708;9.706;2024-02-21T04:39:25;3.07;;;1.70;;
4432;SDS011;2229;48.708;9.706;2024-02-21T04:41:53;2.90;;;1.60;;
4432;SDS011;2229;48.708;9.706;2024-02-21T04:44:20;7.07;;;2.00;;
4432;SDS011;2229;48.708;9.706;2024-02-21T04:46:48;6.10;;;1.50;;
4432;SDS011;2229;48.708;9.706;2024-02-21T04:49:15;5.43;;;2.00;;
4432;SDS011;2229;48.708;9.706;2024-02-21T04:51:42;14.63;;;2.93;;
4432;SDS011;2229;48.708;9.706;2024-02-21T04:54:09;10.33;;;1.60;;
4432;SDS011;2229;48.708;9.706;2024-02-21T04:56:37;5.00;;;2.03;;
4432;SDS011;2229;48.708;9.706;2024-02-21T04:59:06;7.43;;;2.07;;
4432;SDS011;2229;48.708;9.706;2024-02-21T05:01:33;4.63;;;1.63;;
4432;SDS011;2229;48.708;9.706;2024-02-21T05:04:00;3.80;;;1.90;;
4432;SDS011;2229;48.708;9.706;2024-02-21T05:06:27;3.97;;;2.00;;
4432;SDS011;2229;48.708;9.706;2024-02-21T05:08:57;4.80;;;1.60;;
4432;SDS011;2229;48.708;9.706;2024-02-21T05:11:25;5.13;;;1.57;;
4432;SDS011;2229;48.708;9.706;2024-02-21T05:13:52;3.50;;;1.80;;
4432;SDS011;2229;48.708;9.706;2024-02-21T05:16:21;3.30;;;1.37;;
4432;SDS011;2229;48.708;9.706;2024-02-21T05:18:48;2.60;;;1.30;;
4432;SDS011;2229;48.708;9.706;2024-02-21T05:21:15;4.47;;;1.30;;
4432;SDS011;2229;48.708;9.706;2024-02-21T05:23:42;8.90;;;2.50;;
4432;SDS011;2229;48.708;9.706;2024-02-21T05:26:10;6.60;;;1.27;;
4432;SDS011;2229;48.708;9.706;2024-02-21T05:28:37;3.53;;;1.83;;
4432;SDS011;2229;48.708;9.706;2024-02-21T05:31:04;2.67;;;1.80;;
4432;SDS011;2229;48.708;9.706;2024-02-21T05:33:33;4.70;;;2.10;;
4432;SDS011;2229;48.708;9.706;2024-02-21T05:36:00;3.43;;;1.80;;
4432;SDS011;2229;48.708;9.706;2024-02-21T05:38:28;2.70;;;1.50;;
4432;SDS011;2229;48.708;9.706;2024-02-21T05:40:55;3.20;;;1.80;;
4432;SDS011;2229;48.708;9.706;2024-02-21T05:43:22;3.67;;;1.50;;
4432;SDS011;2229;48.708;9.706;2024-02-21T05:45:49;4.60;;;1.83;;
4432;SDS011;2229;48.708;9.706;2024-02-21T05:48:16;3.00;;;1.80;;
4432;SDS011;2229;48.708;9.706;2024-02-21T05:50:45;5.60;;;2.13;;
4432;SDS011;2229;48.708;9.706;2024-02-21T05:53:12;2.93;;;1.80;;
4432;SDS011;2229;48.708;9.706;2024-02-21T05:55:40;7.17;;;2.17;;
4432;SDS011;2229;48.708;9.706;2024-02-21T05:58:07;6.73;;;2.70;;
4432;SDS011;2229;48.708;9.706;2024-02-21T06:00:37;4.90;;;2.23;;
4432;SDS011;2229;48.708;9.706;2024-02-21T06:03:04;11.97;;;3.13;;
4432;SDS011;2229;48.708;9.706;2024-02-21T06:05:36;4.70;;;2.40;;
4432;SDS011;2229;48.708;9.706;2024-02-21T06:08:08;8.20;;;2.97;;
4432;SDS011;2229;48.708;9.706;2024-02-21T06:10:35;5.50;;;1.90;;
4432;SDS011;2229;48.708;9.706;2024-02-21T06:13:03;2.07;;;1.23;;
4432;SDS011;2229;48.708;9.706;2024-02-21T06:15:30;3.03;;;1.90;;
4432;SDS011;2229;48.708;9.706;2024-02-21T06:17:57;6.33;;;2.00;;
4432;SDS011;2229;48.708;9.706;2024-02-21T06:20:24;7.93;;;1.93;;
4432;SDS011;2229;48.708;9.706;2024-02-21T06:22:53;10.03;;;2.30;;
4432;SDS011;2229;48.708;9.706;2024-02-21T06:25:22;6.57;;;2.63;;
4432;SDS011;2229;48.708;9.706;2024-02-21T06:27:49;3.13;;;1.83;;
4432;SDS011;2229;48.708;9.706;2024-02-21T06:30:16;4.07;;;3.17;;
4432;SDS011;2229;48.708;9.706;2024-02-21T06:32:43;3.63;;;3.13;;
4432;SDS011;2229;48.708;9.706;2024-02-21T06:35:10;17.40;;;7.20;;
4432;SDS011;2229;48.708;9.706;2024-02-21T06:37:37;65.17;;;18.97;;
4432;SDS011;2229;48.708;9.706;2024-02-21T06:40:05;117.07;;;30.67;;
4432;SDS011;2229;48.708;9.706;2024-02-21T06:42:34;91.80;;;26.20;;
4432;SDS011;2229;48.708;9.706;2024-02-21T06:45:02;128.13;;;37.60;;
4432;SDS011;2229;48.708;9.706;2024-02-21T06:47:29;147.47;;;40.80;;
4432;SDS011;2229;48.708;9.706;2024-02-21T06:49:56;97.47;;;30.10;;
4432;SDS011;2229;48.708;9.706;2024-02-21T06:52:24;68.50;;;22.20;;
4432;SDS011;2229;48.708;9.706;2024-02-21T06:54:52;53.97;;;18.17;;
4432;SDS011;2229;48.708;9.706;2024-02-21T06:57:19;46.23;;;14.90;;
4432;SDS011;2229;48.708;9.706;2024-02-21T06:59:48;51.50;;;12.20;;
4432;SDS011;2229;48.708;9.706;2024-02-21T07:02:17;45.23;;;12.30;;
4432;SDS011;2229;48.708;9.706;2024-02-21T07:04:44;36.90;;;10.97;;
4432;SDS011;2229;48.708;9.706;2024-02-21T07:07:11;19.93;;;6.80;;
4432;SDS011;2229;48.708;9.706;2024-02-21T07:09:38;16.33;;;7.37;;
4432;SDS011;2229;48.708;9.706;2024-02-21T07:12:06;15.30;;;2.90;;
4432;SDS011;2229;48.708;9.706;2024-02-21T07:14:33;7.83;;;3.20;;
4432;SDS011;2229;48.708;9.706;2024-02-21T07:17:02;4.43;;;1.70;;
4432;SDS011;2229;48.708;9.706;2024-02-21T07:19:29;8.33;;;2.97;;
4432;SDS011;2229;48.708;9.706;2024-02-21T07:21:56;6.93;;;2.07;;
4432;SDS011;2229;48.708;9.706;2024-02-21T07:24:24;4.03;;;1.60;;
4432;SDS011;2229;48.708;9.706;2024-02-21T07:26:52;6.30;;;1.90;;
4432;SDS011;2229;48.708;9.706;2024-02-21T07:29:19;7.50;;;2.70;;
4432;SDS011;2229;48.708;9.706;2024-02-21T07:31:48;6.00;;;2.40;;
4432;SDS011;2229;48.708;9.706;2024-02-21T07:34:19;7.50;;;2.40;;
4432;SDS011;2229;48.708;9.706;2024-02-21T07:36:46;5.07;;;2.20;;
4432;SDS011;2229;48.708;9.706;2024-02-21T07:39:13;7.20;;;3.03;;
4432;SDS011;2229;48.708;9.706;2024-02-21T07:41:40;5.47;;;2.97;;
4432;SDS011;2229;48.708;9.706;2024-02-21T07:44:10;5.00;;;2.40;;
4432;SDS011;2229;48.708;9.706;2024-02-21T07:46:37;8.30;;;3.60;;
4432;SDS011;2229;48.708;9.706;2024-02-21T07:49:04;8.27;;;3.70;;
4432;SDS011;2229;48.708;9.706;2024-02-21T07:51:34;9.80;;;4.03;;
4432;SDS011;2229;48.708;9.706;2024-02-21T07:54:01;8.00;;;2.60;;
4432;SDS011;2229;48.708;9.706;2024-02-21T07:56:29;8.97;;;3.87;;
4432;SDS011;2229;48.708;9.706;2024-02-21T07:58:56;7.60;;;2.60;;
4432;SDS011;2229;48.708;9.706;2024-02-21T08:01:24;6.23;;;3.43;;
4432;SDS011;2229;48.708;9.706;2024-02-21T08:03:51;5.13;;;2.73;;
4432;SDS011;2229;48.708;9.706;2024-02-21T08:06:18;6.57;;;2.70;;
4432;SDS011;2229;48.708;9.706;2024-02-21T08:08:47;11.10;;;3.00;;
4432;SDS011;2229;48.708;9.706;2024-02-21T08:11:15;12.20;;;3.80;;
4432;SDS011;2229;48.708;9.706;2024-02-21T08:13:42;10.70;;;4.27;;
4432;SDS011;2229;48.708;9.706;2024-02-21T08:16:09;12.10;;;3.73;;
4432;SDS011;2229;48.708;9.706;2024-02-21T08:18:36;4.43;;;2.73;;
4432;SDS011;2229;48.708;9.706;2024-02-21T08:21:04;18.43;;;3.03;;
4432;SDS011;2229;48.708;9.706;2024-02-21T08:23:32;7.27;;;3.40;;
4432;SDS011;2229;48.708;9.706;2024-02-21T08:26:02;6.23;;;3.23;;
4432;SDS011;2229;48.708;9.706;2024-02-21T08:28:30;5.47;;;2.80;;
4432;SDS011;2229;48.708;9.706;2024-02-21T08:30:57;9.17;;;3.07;;
4432;SDS011;2229;48.708;9.706;2024-02-21T08:33:24;8.27;;;3.80;;
4432;SDS011;2229;48.708;9.706;2024-02-21T08:35:51;7.47;;;3.70;;
4432;SDS011;2229;48.708;9.706;2024-02-21T08:38:19;5.80;;;2.27;;
4432;SDS011;2229;48.708;9.706;2024-02-21T08:40:46;3.37;;;1.80;;
4432;SDS011;2229;48.708;9.706;2024-02-21T08:43:15;7.53;;;2.47;;
4432;SDS011;2229;48.708;9.706;2024-02-21T08:45:42;4.90;;;2.63;;
4432;SDS011;2229;48.708;9.706;2024-02-21T08:48:09;4.30;;;2.13;;
4432;SDS011;2229;48.708;9.706;2024-02-21T08:50:37;5.60;;;2.67;;
4432;SDS011;2229;48.708;9.706;2024-02-21T08:53:04;5.80;;;2.97;;
4432;SDS011;2229;48.708;9.706;2024-02-21T08:55:31;6.13;;;3.03;;
4432;SDS011;2229;48.708;9.706;2024-02-21T08:58:00;6.73;;;2.57;;
4432;SDS011;2229;48.708;9.706;2024-02-21T09:00:31;11.30;;;2.60;;
4432;SDS011;2229;48.708;9.706;2024-02-21T09:02:58;3.47;;;2.70;;
4432;SDS011;2229;48.708;9.706;2024-02-21T09:05:25;6.70;;;2.70;;
4432;SDS011;2229;48.708;9.706;2024-02-21T09:07:53;7.83;;;2.20;;
4432;SDS011;2229;48.708;9.706;2024-02-21T09:10:20;3.40;;;2.10;;
4432;SDS011;2229;48.708;9.706;2024-02-21T09:12:47;6.63;;;2.37;;
4432;SDS011;2229;48.708;9.706;2024-02-21T09:15:15;5.10;;;1.90;;
4432;SDS011;2229;48.708;9.706;2024-02-21T09:17:43;3.60;;;2.27;;
4432;SDS011;2229;48.708;9.706;2024-02-21T09:20:11;13.70;;;2.67;;
4432;SDS011;2229;48.708;9.706;2024-02-21T09:22:42;7.63;;;3.27;;
4432;SDS011;2229;48.708;9.706;2024-02-21T09:25:09;7.13;;;2.63;;
4432;SDS011;2229;48.708;9.706;2024-02-21T09:27:37;5.97;;;2.67;;
4432;SDS011;2229;48.708;9.706;2024-02-21T09:30:05;3.23;;;2.27;;
4432;SDS011;2229;48.708;9.706;2024-02-21T09:32:33;6.47;;;1.73;;
4432;SDS011;2229;48.708;9.706;2024-02-21T09:35:01;3.50;;;1.87;;
4432;SDS011;2229;48.708;9.706;2024-02-21T09:37:30;9.90;;;2.37;;
4432;SDS011;2229;48.708;9.706;2024-02-21T09:39:58;4.30;;;1.63;;
4432;SDS011;2229;48.708;9.706;2024-02-21T09:42:28;4.30;;;2.30;;
4432;SDS011;2229;48.708;9.706;2024-02-21T09:45:03;7.40;;;1.90;;
4432;SDS011;2229;48.708;9.706;2024-02-21T09:47:38;5.20;;;2.17;;
4432;SDS011;2229;48.708;9.706;2024-02-21T09:50:22;4.00;;;1.90;;
4432;SDS011;2229;48.708;9.706;2024-02-21T09:52:51;3.83;;;2.13;;
4432;SDS011;2229;48.708;9.706;2024-02-21T09:55:21;5.03;;;2.37;;
4432;SDS011;2229;48.708;9.706;2024-02-21T09:57:49;4.30;;;1.80;;
4432;SDS011;2229;48.708;9.706;2024-02-21T10:00:27;4.20;;;1.93;;
4432;SDS011;2229;48.708;9.706;2024-02-21T10:02:54;7.53;;;1.83;;
4432;SDS011;2229;48.708;9.706;2024-02-21T10:05:22;6.30;;;2.07;;
4432;SDS011;2229;48.708;9.706;2024-02-21T10:07:51;3.20;;;1.60;;
4432;SDS011;2229;48.708;9.706;2024-02-21T10:10:18;6.53;;;2.20;;
4432;SDS011;2229;48.708;9.706;2024-02-21T10:12:47;4.10;;;1.60;;
4432;SDS011;2229;48.708;9.706;2024-02-21T10:15:19;4.33;;;2.20;;
4432;SDS011;2229;48.708;9.706;2024-02-21T10:17:47;4.80;;;1.60;;
4432;SDS011;2229;48.708;9.706;2024-02-21T10:20:15;4.97;;;1.60;;
4432;SDS011;2229;48.708;9.706;2024-02-21T10:22:47;3.87;;;1.93;;
4432;SDS011;2229;48.708;9.706;2024-02-21T10:25:15;5.20;;;1.93;;
4432;SDS011;2229;48.708;9.706;2024-02-21T10:27:44;3.20;;;1.80;;
4432;SDS011;2229;48.708;9.706;2024-02-21T10:30:13;3.63;;;1.53;;
4432;SDS011;2229;48.708;9.706;2024-02-21T10:32:48;4.80;;;1.77;;
4432;SDS011;2229;48.708;9.706;2024-02-21T10:35:25;3.47;;;1.27;;
4432;SDS011;2229;48.708;9.706;2024-02-21T10:37:55;6.03;;;2.07;;
4432;SDS011;2229;48.708;9.706;2024-02-21T10:40:23;8.23;;;1.47;;
4432;SDS011;2229;48.708;9.706;2024-02-21T10:42:52;7.93;;;1.60;;
4432;SDS011;2229;48.708;9.706;2024-02-21T10:45:31;2.63;;;0.87;;
4432;SDS011;2229;48.708;9.706;2024-02-21T10:48:01;5.23;;;1.83;;
4432;SDS011;2229;48.708;9.706;2024-02-21T10:50:36;4.60;;;1.93;;
4432;SDS011;2229;48.708;9.706;2024-02-21T10:53:20;3.30;;;1.33;;
4432;SDS011;2229;48.708;9.706;2024-02-21T10:55:56;4.80;;;1.30;;
4432;SDS011;2229;48.708;9.706;2024-02-21T10:58:32;2.27;;;1.30;;
4432;SDS011;2229;48.708;9.706;2024-02-21T11:01:00;3.80;;;1.40;;
4432;SDS011;2229;48.708;9.706;2024-02-21T11:03:28;6.20;;;1.70;;
4432;SDS011;2229;48.708;9.706;2024-02-21T11:05:57;3.53;;;1.13;;
4432;SDS011;2229;48.708;9.706;2024-02-21T11:08:26;3.47;;;1.63;;
4432;SDS011;2229;48.708;9.706;2024-02-21T11:10:56;6.90;;;1.70;;
4432;SDS011;2229;48.708;9.706;2024-02-21T11:13:30;4.37;;;1.37;;
4432;SDS011;2229;48.708;9.706;2024-02-21T11:16:05;2.20;;;1.03;;
4432;SDS011;2229;48.708;9.706;2024-02-21T11:18:34;3.60;;;1.60;;
4432;SDS011;2229;48.708;9.706;2024-02-21T11:21:01;2.33;;;1.00;;
4432;SDS011;2229;48.708;9.706;2024-02-21T11:23:31;7.03;;;1.27;;
4432;SDS011;2229;48.708;9.706;2024-02-21T11:26:03;3.57;;;2.20;;
4432;SDS011;2229;48.708;9.706;2024-02-21T11:28:32;1.50;;;0.90;;
4432;SDS011;2229;48.708;9.706;2024-02-21T11:31:09;2.33;;;1.20;;
4432;SDS011;2229;48.708;9.706;2024-02-21T11:33:39;5.53;;;1.57;;
4432;SDS011;2229;48.708;9.706;2024-02-21T11:36:06;7.00;;;1.60;;
4432;SDS011;2229;48.708;9.706;2024-02-21T11:38:35;2.53;;;1.13;;
4432;SDS011;2229;48.708;9.706;2024-02-21T11:41:03;7.83;;;1.70;;
4432;SDS011;2229;48.708;9.706;2024-02-21T11:43:35;3.03;;;1.80;;
4432;SDS011;2229;48.708;9.706;2024-02-21T11:46:03;3.97;;;1.83;;
4432;SDS011;2229;48.708;9.706;2024-02-21T11:48:31;4.33;;;1.40;;
4432;SDS011;2229;48.708;9.706;2024-02-21T11:50:58;12.30;;;2.10;;
4432;SDS011;2229;48.708;9.706;2024-02-21T11:53:26;4.50;;;1.77;;
4432;SDS011;2229;48.708;9.706;2024-02-21T11:55:57;3.37;;;1.20;;
4432;SDS011;2229;48.708;9.706;2024-02-21T11:58:24;1.60;;;1.13;;
4432;SDS011;2229;48.708;9.706;2024-02-21T12:00:52;6.70;;;1.10;;
4432;SDS011;2229;48.708;9.706;2024-02-21T12:03:19;2.23;;;0.93;;
4432;SDS011;2229;48.708;9.706;2024-02-21T12:05:47;2.53;;;1.10;;
4432;SDS011;2229;48.708;9.706;2024-02-21T12:08:15;2.83;;;1.27;;
4432;SDS011;2229;48.708;9.706;2024-02-21T12:10:44;3.03;;;1.40;;
4432;SDS011;2229;48.708;9.706;2024-02-21T12:13:17;6.33;;;1.80;;
4432;SDS011;2229;48.708;9.706;2024-02-21T12:15:49;9.37;;;1.17;;
4432;SDS011;2229;48.708;9.706;2024-02-21T12:18:16;2.70;;;1.10;;
4432;SDS011;2229;48.708;9.706;2024-02-21T12:20:43;4.83;;;1.90;;
4432;SDS011;2229;48.708;9.706;2024-02-21T12:23:14;3.63;;;1.53;;
4432;SDS011;2229;48.708;9.706;2024-02-21T12:25:41;4.00;;;1.70;;
4432;SDS011;2229;48.708;9.706;2024-02-21T12:28:09;5.63;;;1.70;;
4432;SDS011;2229;48.708;9.706;2024-02-21T12:30:39;3.63;;;1.47;;
4432;SDS011;2229;48.708;9.706;2024-02-21T12:33:08;5.43;;;1.90;;
4432;SDS011;2229;48.708;9.706;2024-02-21T12:35:36;5.93;;;1.33;;
4432;SDS011;2229;48.708;9.706;2024-02-21T12:38:04;3.33;;;1.77;;
4432;SDS011;2229;48.708;9.706;2024-02-21T12:40:31;2.50;;;1.20;;
4432;SDS011;2229;48.708;9.706;2024-02-21T12:42:59;3.50;;;1.70;;
4432;SDS011;2229;48.708;9.706;2024-02-21T12:45:28;3.60;;;1.40;;
4432;SDS011;2229;48.708;9.706;2024-02-21T12:47:55;3.73;;;1.80;;
4432;SDS011;2229;48.708;9.706;2024-02-21T12:50:23;5.77;;;1.67;;
4432;SDS011;2229;48.708;9.706;2024-02-21T12:52:51;6.60;;;2.23;;
4432;SDS011;2229;48.708;9.706;2024-02-21T12:55:18;3.10;;;1.23;;
4432;SDS011;2229;48.708;9.706;2024-02-21T12:57:45;5.13;;;2.57;;
4432;SDS011;2229;48.708;9.706;2024-02-21T13:00:12;5.80;;;1.80;;
4432;SDS011;2229;48.708;9.706;2024-02-21T13:02:40;3.50;;;1.17;;
4432;SDS011;2229;48.708;9.706;2024-02-21T13:05:09;4.60;;;1.70;;
4432;SDS011;2229;48.708;9.706;2024-02-21T13:07:37;3.07;;;1.47;;
4432;SDS011;2229;48.708;9.706;2024-02-21T13:10:04;4.87;;;1.80;;
4432;SDS011;2229;48.708;9.706;2024-02-21T13:12:34;2.10;;;1.17;;
4432;SDS011;2229;48.708;9.706;2024-02-21T13:15:01;2.53;;;1.63;;
4432;SDS011;2229;48.708;9.706;2024-02-21T13:17:28;4.93;;;1.20;;
4432;SDS011;2229;48.708;9.706;2024-02-21T13:19:57;3.23;;;1.30;;
4432;SDS011;2229;48.708;9.706;2024-02-21T13:22:25;13.20;;;2.10;;
4432;SDS011;2229;48.708;9.706;2024-02-21T13:24:52;7.10;;;1.60;;
4432;SDS011;2229;48.708;9.706;2024-02-21T13:27:19;2.10;;;1.10;;
4432;SDS011;2229;48.708;9.706;2024-02-21T13:29:46;2.10;;;1.20;;
4432;SDS011;2229;48.708;9.706;2024-02-21T13:32:14;2.13;;;1.23;;
4432;SDS011;2229;48.708;9.706;2024-02-21T13:34:41;3.70;;;1.77;;
4432;SDS011;2229;48.708;9.706;2024-02-21T13:37:09;5.37;;;1.70;;
4432;SDS011;2229;48.708;9.706;2024-02-21T13:39:38;8.50;;;2.30;;
4432;SDS011;2229;48.708;9.706;2024-02-21T13:42:06;2.67;;;1.27;;
4432;SDS011;2229;48.708;9.706;2024-02-21T13:44:34;6.20;;;2.60;;
4432;SDS011;2229;48.708;9.706;2024-02-21T13:47:01;5.63;;;2.00;;
4432;SDS011;2229;48.708;9.706;2024-02-21T13:49:30;4.73;;;1.50;;
4432;SDS011;2229;48.708;9.706;2024-02-21T13:51:57;4.40;;;2.13;;
4432;SDS011;2229;48.708;9.706;2024-02-21T13:54:25;8.27;;;1.50;;
4432;SDS011;2229;48.708;9.706;2024-02-21T13:56:54;2.77;;;1.50;;
4432;SDS011;2229;48.708;9.706;2024-02-21T13:59:21;3.40;;;1.53;;
4432;SDS011;2229;48.708;9.706;2024-02-21T14:01:48;3.63;;;1.60;;
4432;SDS011;2229;48.708;9.706;2024-02-21T14:04:16;4.80;;;1.70;;
4432;SDS011;2229;48.708;9.706;2024-02-21T14:06:43;4.30;;;1.43;;
4432;SDS011;2229;48.708;9.706;2024-02-21T14:09:10;3.30;;;1.70;;
4432;SDS011;2229;48.708;9.706;2024-02-21T14:11:37;2.63;;;1.30;;
4432;SDS011;2229;48.708;9.706;2024-02-21T14:14:06;5.67;;;1.40;;
4432;SDS011;2229;48.708;9.706;2024-02-21T14:16:33;4.73;;;1.20;;
4432;SDS011;2229;48.708;9.706;2024-02-21T14:19:00;3.17;;;2.67;;
4432;SDS011;2229;48.708;9.706;2024-02-21T14:21:28;3.20;;;1.63;;
4432;SDS011;2229;48.708;9.706;2024-02-21T14:23:55;1.83;;;1.00;;
4432;SDS011;2229;48.708;9.706;2024-02-21T14:26:23;4.37;;;1.70;;
4432;SDS011;2229;48.708;9.706;2024-02-21T14:28:50;11.33;;;3.70;;
4432;SDS011;2229;48.708;9.706;2024-02-21T14:31:19;2.80;;;1.00;;
4432;SDS011;2229;48.708;9.706;2024-02-21T14:33:46;2.07;;;1.13;;
4432;SDS011;2229;48.708;9.706;2024-02-21T14:36:13;5.73;;;1.50;;
4432;SDS011;2229;48.708;9.706;2024-02-21T14:38:41;2.90;;;1.70;;
4432;SDS011;2229;48.708;9.706;2024-02-21T14:41:08;4.17;;;2.27;;
4432;SDS011;2229;48.708;9.706;2024-02-21T14:43:37;5.37;;;1.10;;
4432;SDS011;2229;48.708;9.706;2024-02-21T14:46:04;4.13;;;1.70;;
4432;SDS011;2229;48.708;9.706;2024-02-21T14:48:33;1.70;;;1.00;;
4432;SDS011;2229;48.708;9.706;2024-02-21T14:51:01;3.67;;;1.33;;
4432;SDS011;2229;48.708;9.706;2024-02-21T14:53:29;1.93;;;0.83;;
4432;SDS011;2229;48.708;9.706;2024-02-21T14:55:57;4.40;;;1.23;;
4432;SDS011;2229;48.708;9.706;2024-02-21T14:58:24;2.70;;;1.40;;
4432;SDS011;2229;48.708;9.706;2024-02-21T15:00:51;5.43;;;1.33;;
4432;SDS011;2229;48.708;9.706;2024-02-21T15:03:19;4.50;;;1.23;;
4432;SDS011;2229;48.708;9.706;2024-02-21T15:05:48;2.40;;;1.17;;
4432;SDS011;2229;48.708;9.706;2024-02-21T15:08:15;2.13;;;1.17;;
4432;SDS011;2229;48.708;9.706;2024-02-21T15:10:45;3.53;;;1.73;;
4432;SDS011;2229;48.708;9.706;2024-02-21T15:13:12;6.23;;;1.90;;
4432;SDS011;2229;48.708;9.706;2024-02-21T15:15:40;2.17;;;1.00;;
4432;SDS011;2229;48.708;9.706;2024-02-21T15:18:07;2.90;;;1.47;;
4432;SDS011;2229;48.708;9.706;2024-02-21T15:20:34;2.00;;;1.00;;